Latest Weather Observations for Lismore Airport

IDN60801

Issued at 5:35 am EDT Monday 24 November 2014 (issued every 30 minutes, with the page automatically refreshed every 10 minutes)

About weather observations | Map of weather stations | Latest weather observations for NSW | Other Formats
Station Details ID: 058214 Name: LISMORE AIRPORT AWS Lat: -28.83 Lon: 153.26 Height: 9.21 m
Data from the previous 72 hours. | See also: Recent months for locations in New South Wales
Date/Time
EDT
Temp
°C
App
Temp
°C
Dew
Point
Rel
Hum
%
Delta-T
°C
Wind Press
QNH
hPa
Press
MSL
hPa
Rain
since 9 am
mm
Dir
 
Spd
km/h
Gust
km/h
Spd
kts
Gust
kts
24/05:30am 19.9 23.1 18.9 94 0.6 NNW 0 0 0 0 1014.8 1014.8 0.0
24/05:00am 19.6 22.5 18.3 92 0.8 W 0 0 0 0 1014.9 1014.9 0.0
24/04:30am 19.9 21.3 18.6 92 0.8 NNW 9 11 5 6 1014.5 1014.5 0.0
24/04:00am 20.6 22.0 18.7 89 1.2 N 9 11 5 6 1014.4 1014.4 0.0
24/03:30am 20.5 21.6 18.1 86 1.5 N 9 13 5 7 1014.4 1014.4 0.0
24/03:00am 21.4 22.7 18.4 83 1.9 N 9 15 5 8 1014.2 1014.2 0.0
24/02:30am 22.8 23.0 19.4 81 2.2 NNE 17 22 9 12 1014.0 1014.0 0.0
24/02:00am 22.9 22.7 19.3 80 2.3 NNE 19 22 10 12 1014.1 1014.1 0.0
24/01:30am 23.3 22.9 19.0 77 2.7 NNE 19 24 10 13 1014.5 1014.5 0.0
24/01:00am 23.5 23.5 19.0 76 2.9 NNE 17 24 9 13 1014.8 1014.8 0.0
24/12:30am 23.9 23.9 19.0 74 3.1 NE 17 20 9 11 1015.0 1015.0 0.0
24/12:00am 24.0 24.4 18.9 73 3.2 NE 15 19 8 10 1015.2 1015.2 0.0
 
Date/Time
EDT
Temp
°C
App
Temp
°C
Dew
Point
Rel
Hum
%
Delta-T
°C
Wind Press
QNH
hPa
Press
MSL
hPa
Rain
since 9 am
mm
Dir
 
Spd
km/h
Gust
km/h
Spd
kts
Gust
kts
23/11:30pm 24.1 24.5 19.0 73 3.2 NNE 15 22 8 12 1015.0 1015.0 0.0
23/11:00pm 24.4 24.7 18.8 71 3.6 NNE 15 22 8 12 1014.6 1014.6 0.0
23/10:30pm 24.6 24.5 18.8 70 3.7 NNE 17 20 9 11 1014.5 1014.5 0.0
23/10:00pm 24.9 24.7 18.6 68 4.0 NNE 17 22 9 12 1014.5 1014.5 0.0
23/09:30pm 25.2 25.0 18.6 67 4.2 NNE 17 22 9 12 1014.6 1014.6 0.0
23/09:00pm 25.5 25.4 18.7 66 4.3 NE 17 22 9 12 1014.3 1014.3 0.0
23/08:30pm 25.7 26.3 18.6 65 4.5 NE 13 17 7 9 1014.1 1014.1 0.0
23/08:00pm 26.1 25.5 18.5 63 4.8 NE 19 24 10 13 1013.3 1013.3 0.0
23/07:30pm 26.6 25.9 18.7 62 5.0 NE 20 28 11 15 1012.9 1012.9 0.0
23/07:00pm 26.9 26.4 19.0 62 5.1 NE 20 28 11 15 1012.1 1012.1 0.0
23/06:30pm 27.5 27.2 19.6 62 5.1 NE 20 26 11 14 1011.7 1011.7 0.0
23/06:00pm 28.2 27.4 20.0 61 5.4 NNE 24 28 13 15 1011.2 1011.2 0.0
23/05:30pm 28.7 28.3 20.2 60 5.6 NE 22 30 12 16 1011.0 1011.0 0.0
23/05:00pm 29.4 28.9 20.8 60 5.7 NE 24 30 13 16 1011.3 1011.3 0.0
23/04:30pm 29.7 30.3 21.1 60 5.7 NE 19 28 10 15 1011.8 1011.8 0.0
23/04:00pm 30.0 30.1 21.1 59 5.9 NE 22 30 12 16 1011.3 1011.3 0.0
23/03:30pm 30.4 30.2 21.2 58 6.2 NE 24 35 13 19 1011.6 1011.6 0.0
23/03:00pm 31.2 30.8 21.7 57 6.4 ENE 26 33 14 18 1011.7 1011.7 0.0
23/02:30pm 32.3 32.2 21.5 53 7.3 NE 24 33 13 18 1011.8 1011.8 0.0
23/02:00pm 33.3 33.2 21.5 50 8.0 NE 24 33 13 18 1012.1 1012.1 0.0
23/01:30pm 34.9 35.6 22.2 47 8.7 ENE 22 30 12 16 1012.5 1012.5 0.0
23/01:00pm 35.5 37.1 22.8 47 8.8 ENE 19 26 10 14 1012.9 1012.9 0.0
23/12:30pm 34.5 36.1 20.8 44 9.2 NE 13 19 7 10 1013.8 1013.8 0.0
23/12:00pm 35.1 37.4 21.4 45 9.3 N 11 20 6 11 1014.1 1014.1 0.0
23/11:30am 33.1 34.5 20.3 47 8.5 NNE 13 22 7 12 1014.6 1014.6 0.0
23/11:00am 32.2 34.0 21.1 52 7.5 N 13 22 7 12 1015.1 1015.1 0.0
23/10:30am 30.7 32.6 20.6 54 6.7 N 11 20 6 11 1015.6 1015.6 0.0
23/10:00am 30.1 30.9 20.6 56 6.3 NNW 17 26 9 14 1015.8 1015.8 0.0
23/09:30am 29.1 31.1 21.6 64 5.0 NNW 13 20 7 11 1015.9 1015.9 0.0
23/09:00am 27.9 29.8 21.4 67 4.3 NNE 13 20 7 11 1015.9 1015.9 0.0
23/08:30am 27.0 29.0 21.5 72 3.7 NNE 13 19 7 10 1016.1 1016.1 0.0
23/08:00am 26.0 27.8 21.2 75 3.2 NNE 13 19 7 10 1016.0 1016.0 0.0
23/07:30am 24.7 27.5 21.6 83 2.1 N 9 13 5 7 1016.1 1016.1 0.0
23/07:00am 23.0 28.0 22.5 97 0.3 CALM 0 0 0 0 1015.7 1015.7 0.0
23/06:30am 22.1 26.7 21.8 98 0.2 CALM 0 0 0 0 1015.5 1015.5 0.0
23/06:00am 20.6 23.5 19.8 95 0.5 N 4 6 2 3 1015.1 1015.1 0.0
23/05:30am 21.0 24.5 20.3 96 0.4 N 2 9 1 5 1014.3 1014.3 0.0
23/05:00am 21.0 23.5 20.3 96 0.4 N 7 9 4 5 1013.8 1013.8 0.0
23/04:30am 21.0 24.9 20.3 96 0.4 CALM 0 0 0 0 1013.6 1013.6 0.0
23/04:00am 20.4 23.9 19.6 95 0.5 CALM 0 0 0 0 1013.2 1013.2 0.0
23/03:30am 20.9 24.6 19.9 94 0.6 CALM 0 0 0 0 1013.3 1013.3 0.0
23/03:28am 20.9 24.6 19.9 94 0.6 CALM 0 0 0 0 1013.3 1013.3 0.0
23/03:12am 21.0 24.7 20.0 94 0.6 CALM 0 0 0 0 1013.4 1013.4 0.0
23/03:02am 21.7 25.9 21.0 96 0.5 CALM 0 0 0 0 1013.4 1013.4 0.0
23/03:00am 21.7 25.9 21.0 96 0.5 CALM 0 0 0 0 1013.4 1013.4 0.0
23/02:44am 21.4 25.2 20.2 93 0.8 CALM 0 0 0 0 1013.4 1013.4 0.0
23/02:30am 21.5 25.4 20.3 93 0.8 CALM 0 0 0 0 1013.6 1013.6 0.0
23/02:00am 21.9 26.1 20.9 94 0.7 CALM 0 0 0 0 1013.9 1013.9 0.0
23/01:30am 22.0 25.3 20.8 93 0.8 WSW 4 7 2 4 1014.0 1014.0 0.0
23/01:00am 22.5 26.5 20.6 89 1.2 CALM 0 0 0 0 1014.1 1014.1 0.0
23/12:30am 23.2 26.2 21.3 89 1.2 SE 7 9 4 5 1014.4 1014.4 0.0
23/12:00am 23.5 27.9 21.4 88 1.4 CALM 0 2 0 1 1014.5 1014.5 0.0
 
Date/Time
EDT
Temp
°C
App
Temp
°C
Dew
Point
Rel
Hum
%
Delta-T
°C
Wind Press
QNH
hPa
Press
MSL
hPa
Rain
since 9 am
mm
Dir
 
Spd
km/h
Gust
km/h
Spd
kts
Gust
kts
22/11:30pm 23.7 28.0 21.2 86 1.6 CALM 0 0 0 0 1014.4 1014.4 0.0
22/11:00pm 23.9 28.1 21.0 84 1.9 CALM 0 0 0 0 1014.2 1014.2 0.0
22/10:30pm 25.3 29.6 21.2 78 2.7 CALM 0 0 0 0 1013.9 1013.9 0.0
22/10:00pm 25.6 29.2 21.3 77 2.8 NNE 4 9 2 5 1013.6 1013.6 0.0
22/09:30pm 26.0 28.7 21.4 76 3.1 NE 9 17 5 9 1013.1 1013.1 0.0
22/09:00pm 26.3 28.3 21.5 75 3.2 ENE 13 20 7 11 1012.4 1012.4 0.0
22/08:30pm 26.7 27.6 21.5 73 3.5 NE 19 26 10 14 1011.9 1011.9 0.0
22/08:00pm 27.3 27.6 21.6 71 3.8 NE 22 30 12 16 1011.3 1011.3 0.0
22/07:30pm 28.0 28.8 21.8 69 4.2 NE 20 30 11 16 1010.9 1010.9 0.0
22/07:00pm 28.7 29.1 21.7 66 4.7 NE 22 32 12 17 1010.3 1010.3 0.0
22/06:30pm 29.7 29.6 22.2 64 5.1 ENE 26 37 14 20 1009.9 1009.9 0.0
22/06:00pm 30.3 30.6 22.2 62 5.5 ENE 24 37 13 20 1009.5 1009.5 0.0
22/05:30pm 30.4 31.3 22.6 63 5.3 ENE 22 32 12 17 1009.5 1009.5 0.0
22/05:00pm 30.7 30.4 22.6 62 5.5 NE 28 35 15 19 1009.2 1009.2 0.0
22/04:30pm 30.3 31.6 22.7 64 5.2 ENE 20 32 11 17 1009.6 1009.6 0.0
22/04:00pm 30.7 31.6 22.6 62 5.5 ENE 22 30 12 16 1009.8 1009.8 0.0
22/03:30pm 31.7 33.4 23.0 60 6.0 ENE 19 28 10 15 1010.0 1010.0 0.0
22/03:00pm 33.0 34.5 22.7 54 7.1 ENE 19 26 10 14 1010.1 1010.1 0.0
22/02:30pm 33.9 35.6 22.3 50 7.9 NE 17 24 9 13 1010.4 1010.4 0.0
22/02:00pm 34.9 35.6 21.5 45 9.1 S 20 26 11 14 1010.4 1010.4 0.0
22/01:30pm 37.4 39.5 20.2 36 11.6 N 9 17 5 9 1010.4 1010.4 0.0
22/01:00pm 36.9 38.4 19.8 36 11.4 N 11 24 6 13 1010.9 1010.9 0.0
22/12:30pm 36.7 38.0 20.9 39 10.7 W 15 28 8 15 1011.5 1011.5 0.0
22/12:00pm 35.9 38.2 22.1 44 9.5 WNW 13 24 7 13 1011.8 1011.8 0.0
22/11:30am 35.0 36.9 21.3 45 9.3 NNW 13 20 7 11 1012.1 1012.1 0.0
22/11:00am 34.0 35.1 20.4 45 9.1 NW 15 24 8 13 1012.4 1012.4 0.0
22/10:30am 33.6 35.2 21.4 48 8.3 NNW 15 24 8 13 1012.7 1012.7 0.0
22/10:00am 32.7 34.4 20.9 49 7.9 N 13 19 7 10 1012.9 1012.9 0.0
22/09:30am 30.6 32.2 21.4 58 6.2 N 15 28 8 15 1012.9 1012.9 0.0
22/09:00am 29.9 32.2 22.1 63 5.3 N 13 20 7 11 1013.1 1013.1 0.0
22/08:30am 28.1 30.8 22.1 70 4.0 N 11 15 6 8 1013.0 1013.0 0.0
22/08:00am 26.9 30.4 22.1 75 3.2 ENE 7 11 4 6 1013.0 1013.0 0.0
22/07:30am 25.7 27.3 22.2 81 2.3 N 17 22 9 12 1012.4 1012.4 0.0
22/07:00am 24.7 27.2 21.8 84 1.9 N 11 15 6 8 1012.3 1012.3 0.0
22/06:30am 23.0 25.5 21.8 93 0.8 N 11 13 6 7 1011.9 1011.9 0.0
22/06:00am 22.1 24.9 20.9 93 0.8 N 7 11 4 6 1011.6 1011.6 0.0
22/05:30am 22.1 24.4 20.7 92 0.9 N 9 9 5 5 1011.1 1011.1 0.0
22/05:00am 22.4 24.9 21.0 92 0.9 N 9 11 5 6 1010.6 1010.6 0.0
22/04:30am 22.6 25.1 21.1 91 1.0 N 9 11 5 6 1010.4 1010.4 0.0
22/04:00am 23.4 25.4 21.5 89 1.3 N 13 17 7 9 1009.9 1009.9 0.0
22/03:30am 23.3 25.5 21.2 88 1.4 N 11 17 6 9 1009.7 1009.7 0.0
22/03:00am 23.6 26.0 21.5 88 1.4 NNE 11 13 6 7 1009.6 1009.6 0.0
22/02:30am 22.7 25.4 20.6 88 1.4 NNW 7 9 4 5 1009.8 1009.8 0.0
22/02:00am 23.6 27.4 20.9 85 1.8 WNW 2 7 1 4 1009.4 1009.4 0.0
22/01:30am 24.0 27.0 21.3 85 1.8 N 7 9 4 5 1009.6 1009.6 0.0
22/01:00am 24.1 27.8 20.8 82 2.2 N 2 9 1 5 1009.9 1009.9 0.0
22/12:30am 25.1 27.3 21.2 79 2.6 NNE 11 15 6 8 1010.1 1010.1 0.0
22/12:00am 24.9 27.1 21.2 80 2.4 NE 11 17 6 9 1010.6 1010.6 0.0
 
Date/Time
EDT
Temp
°C
App
Temp
°C
Dew
Point
Rel
Hum
%
Delta-T
°C
Wind Press
QNH
hPa
Press
MSL
hPa
Rain
since 9 am
mm
Dir
 
Spd
km/h
Gust
km/h
Spd
kts
Gust
kts
21/11:30pm 24.6 28.0 20.9 80 2.4 NNE 4 11 2 6 1011.0 1011.0 0.0
21/11:00pm 25.3 27.5 21.2 78 2.7 NE 11 13 6 7 1010.9 1010.9 0.0
21/10:30pm 25.5 26.6 21.2 77 2.8 NNE 17 22 9 12 1010.5 1010.5 0.0
21/10:00pm 25.8 26.5 21.5 77 2.9 NNE 20 28 11 15 1010.2 1010.2 0.0
21/09:30pm 25.8 26.3 21.2 76 3.0 NNE 20 28 11 15 1009.8 1009.8 0.0
21/09:00pm 26.2 26.1 21.4 75 3.2 NNE 24 33 13 18 1009.5 1009.5 0.0
21/08:30pm 26.5 26.0 21.5 74 3.3 NNE 26 32 14 17 1009.4 1009.4 0.0
21/08:00pm 26.9 26.8 21.4 72 3.7 NE 24 33 13 18 1009.3 1009.3 0.0
21/07:30pm 27.4 26.5 21.4 70 4.0 NNE 28 37 15 20 1009.0 1009.0 0.0
21/07:00pm 28.2 27.3 21.5 67 4.5 NE 28 39 15 21 1008.7 1008.7 0.0
21/06:30pm 28.8 28.0 21.6 65 4.8 NE 28 39 15 21 1008.2 1008.2 0.0
21/06:00pm 30.0 29.0 21.9 62 5.5 NE 30 43 16 23 1007.6 1007.6 0.0
21/05:30pm 30.1 28.5 21.5 60 5.8 ENE 32 41 17 22 1007.4 1007.4 0.0
21/05:00pm 32.1 31.1 21.9 54 6.9 ENE 30 39 16 21 1007.2 1007.2 0.0
21/04:30pm 32.8 32.4 22.3 54 7.2 ENE 28 39 15 21 1007.4 1007.4 0.0
21/04:00pm 33.5 33.8 21.6 49 8.1 ENE 22 30 12 16 1007.6 1007.6 0.0
21/03:30pm 34.6 35.9 22.3 48 8.4 NE 19 28 10 15 1008.1 1008.1 0.0
21/03:00pm 34.8 36.4 22.2 48 8.7 NE 17 26 9 14 1008.7 1008.7 0.0
21/02:30pm 34.8 33.8 17.9 36 11.0 NNE 20 32 11 17 1009.1 1009.1 0.0
21/02:00pm 35.5 34.0 18.6 37 11.1 NNW 24 30 13 16 1009.7 1009.7 0.0
21/01:30pm 34.9 34.1 18.5 38 10.7 NNW 20 32 11 17 1010.4 1010.4 0.0
21/01:00pm 33.9 33.3 18.8 41 9.9 NW 20 33 11 18 1010.7 1010.7 0.0
21/12:30pm 32.7 31.9 18.5 43 9.2 NNW 20 33 11 18 1011.4 1011.4 0.0
21/12:00pm 32.9 33.5 19.4 45 8.9 N 15 22 8 12 1012.0 1012.0 0.0
21/11:30am 31.8 32.9 20.4 51 7.6 NW 15 28 8 15 1012.5 1012.5 0.0
21/11:00am 30.8 31.3 19.2 50 7.6 N 15 20 8 11 1013.1 1013.1 0.0
21/10:30am 30.6 31.2 20.2 53 6.9 N 17 24 9 13 1013.2 1013.2 0.0
21/10:00am 29.8 30.8 19.5 54 6.7 NNW 13 20 7 11 1013.4 1013.4 0.0
21/09:30am 28.3 29.2 20.1 61 5.4 NNW 15 22 8 12 1013.8 1013.8 0.0
21/09:00am 27.7 30.6 21.0 67 4.4 N 7 13 4 7 1014.0 1014.0 0.0
21/08:30am 26.4 28.4 20.7 71 3.7 NE 11 19 6 10 1014.2 1014.2 0.0
21/08:00am 24.9 26.3 20.4 76 2.9 NE 13 17 7 9 1013.8 1013.8 0.0
21/07:30am 22.9 26.7 20.1 84 1.8 CALM 0 0 0 0 1014.0 1014.0 0.0
21/07:00am 20.7 24.7 20.5 99 0.1 CALM 0 0 0 0 1014.0 1014.0 0.0
21/06:30am 18.5 21.4 18.3 99 0.1 CALM 0 0 0 0 1013.8 1013.8 0.0
21/06:22am 17.7 20.1 16.9 95 0.5 CALM 0 0 0 0 1013.7 1013.7 0.0
21/06:05am 17.8 20.4 17.6 99 0.1 CALM 0 0 0 0 1013.4 1013.4 0.0
21/06:00am 18.6 21.6 18.4 99 0.1 CALM 0 0 0 0 1013.3 1013.3 0.0

Other Formats:

Comma delimited format used in spreadsheet applications
http://www.bom.gov.au/fwo/IDN60801/IDN60801.94572.axf

JavaScript Object Notation format (JSON) in row-major order
http://www.bom.gov.au/fwo/IDN60801/IDN60801.94572.json